Terminal Aerodrome Forecast
Issued by NWS Spokane, WA

Home | Current Version | Previous Version | Text Only | Print | Product List | Glossary On
Versions: 1 2 3 4 5 6 7 8 9 10 11 12 13 14 15 16 17 18 19
000
FTUS46 KOTX 201603 AAB
TAFGEG
TAF AMD
KGEG 201603Z 2016/2112 21014KT P6SM BKN009 OVC011
     FM201900 23017G25KT P6SM BKN020
     FM202000 23020G27KT P6SM VCSH BKN035 BKN100
     FM202300 22015G23KT P6SM SCT060 BKN250
     FM211100 19011KT P6SM SCT010 BKN090=

USA.gov is the U.S. government's official web portal to all federal, state and local government web resources and services.